Time;durP1;ratioP1;P1;durP2;ratioP2;P2;SDS_P1;SDS_P2;PMS_P1;PMS_P2;Temp;Humidity;BMP_temperature;BMP_pressure;BME280_temperature;BME280_humidity;BME280_pressure;Samples;Min_cycle;Max_cycle;Signal;HPM_P1;HPM_P2
2022/07/30 00:00:22;;;;;;;3.53;1.10;;;;;;;;;;6182826;23;20029;-81
2022/07/30 00:02:51;;;;;;;10.88;1.95;;;;;;;;;;6182154;23;20017;-82
2022/07/30 00:05:19;;;;;;;4.32;2.97;;;;;;;;;;6182609;23;20021;-82
2022/07/30 00:07:46;;;;;;;4.70;2.70;;;;;;;;;;6182867;23;20324;-82
2022/07/30 00:10:13;;;;;;;;;;;;;;;;;;6182866;23;20056;-82
2022/07/30 00:12:41;;;;;;;4.50;2.45;;;;;;;;;;6181462;23;20367;-82
2022/07/30 00:15:08;;;;;;;6.25;3.05;;;;;;;;;;6182500;23;20054;-82
2022/07/30 00:17:36;;;;;;;5.25;3.30;;;;;;;;;;6180606;23;20052;-82
2022/07/30 00:20:04;;;;;;;9.82;3.53;;;;;;;;;;6181768;23;20021;-82
2022/07/30 00:22:31;;;;;;;9.00;3.65;;;;;;;;;;6180675;23;20029;-82
2022/07/30 00:24:58;;;;;;;8.52;4.07;;;;;;;;;;6181322;23;20028;-82
2022/07/30 00:27:26;;;;;;;5.70;3.05;;;;;;;;;;6181477;23;20049;-82
2022/07/30 00:29:53;;;;;;;9.23;3.40;;;;;;;;;;6181633;23;20032;-83
2022/07/30 00:32:21;;;;;;;7.95;3.75;;;;;;;;;;6181184;23;20342;-83
2022/07/30 00:34:48;;;;;;;7.78;3.90;;;;;;;;;;6180609;23;20470;-83
2022/07/30 00:37:15;;;;;;;7.20;3.63;;;;;;;;;;6180411;23;20040;-83
2022/07/30 00:39:43;;;;;;;9.00;3.67;;;;;;;;;;6181443;23;20025;-83
2022/07/30 00:42:10;;;;;;;7.55;3.72;;;;;;;;;;6178781;23;20057;-83
2022/07/30 00:44:37;;;;;;;5.97;2.75;;;;;;;;;;6181023;23;20462;-82
2022/07/30 00:47:07;;;;;;;3.47;3.00;;;;;;;;;;6181423;23;20104;-83
2022/07/30 00:49:34;;;;;;;4.97;2.97;;;;;;;;;;6181086;23;20480;-83
2022/07/30 00:52:01;;;;;;;5.57;3.05;;;;;;;;;;6181313;23;20024;-82
2022/07/30 00:54:29;;;;;;;4.90;3.10;;;;;;;;;;6178961;23;20532;-83
2022/07/30 00:56:56;;;;;;;3.55;2.80;;;;;;;;;;6180168;23;20025;-82
2022/07/30 00:59:26;;;;;;;9.80;3.33;;;;;;;;;;6181540;23;20079;-82
2022/07/30 01:01:54;;;;;;;9.30;3.70;;;;;;;;;;6181742;23;20051;-83
2022/07/30 01:04:21;;;;;;;;;;;;;;;;;;6181465;23;20021;-83
2022/07/30 01:06:48;;;;;;;8.10;3.45;;;;;;;;;;6181177;23;19928;-83
2022/07/30 01:09:16;;;;;;;12.48;3.63;;;;;;;;;;6181315;23;20075;-83
2022/07/30 01:11:43;;;;;;;6.03;3.60;;;;;;;;;;6181056;23;20320;-83
2022/07/30 01:14:11;;;;;;;;;;;;;;;;;;6181066;23;20545;-83
2022/07/30 01:16:41;;;;;;;8.10;4.25;;;;;;;;;;6180921;23;19916;-83
2022/07/30 01:22:13;;;;;;;6.10;3.20;;;;;;;;;;6180674;23;20028;-82
2022/07/30 01:24:42;;;;;;;8.68;3.75;;;;;;;;;;6180562;23;20061;-83
2022/07/30 01:27:10;;;;;;;8.38;3.67;;;;;;;;;;6180846;23;20478;-83
2022/07/30 01:29:42;;;;;;;7.97;3.63;;;;;;;;;;6180809;23;20032;-83
2022/07/30 01:32:10;;;;;;;5.68;3.50;;;;;;;;;;6181505;23;20036;-84
2022/07/30 01:34:38;;;;;;;10.02;3.88;;;;;;;;;;6180270;23;20027;-84
2022/07/30 01:37:07;;;;;;;5.25;3.53;;;;;;;;;;6180766;23;20075;-83
2022/07/30 01:39:35;;;;;;;8.10;3.53;;;;;;;;;;6178711;23;20071;-83
2022/07/30 01:42:06;;;;;;;4.78;3.35;;;;;;;;;;6180737;23;20029;-83
2022/07/30 01:44:33;;;;;;;7.07;3.72;;;;;;;;;;6180632;23;20079;-83
2022/07/30 01:47:01;;;;;;;12.13;4.18;;;;;;;;;;6181624;23;20075;-83
2022/07/30 01:49:30;;;;;;;6.82;3.83;;;;;;;;;;6181292;23;20024;-83
2022/07/30 01:51:58;;;;;;;9.80;3.80;;;;;;;;;;6180513;23;20029;-83
2022/07/30 01:54:26;;;;;;;7.15;3.83;;;;;;;;;;6180769;23;20087;-83
2022/07/30 01:56:56;;;;;;;8.05;3.58;;;;;;;;;;6179944;23;20083;-83
2022/07/30 01:59:24;;;;;;;5.70;3.13;;;;;;;;;;6181175;23;20025;-84
2022/07/30 02:01:52;;;;;;;4.18;3.35;;;;;;;;;;6181339;23;20021;-83
2022/07/30 02:04:19;;;;;;;9.18;3.90;;;;;;;;;;6181308;23;20025;-83
2022/07/30 02:06:52;;;;;;;5.55;3.38;;;;;;;;;;6181277;23;20075;-83
2022/07/30 02:09:22;;;;;;;10.38;3.65;;;;;;;;;;6181383;23;20029;-83
2022/07/30 02:14:49;;;;;;;7.47;3.70;;;;;;;;;;6180348;23;20025;-83
2022/07/30 02:17:18;;;;;;;6.95;4.07;;;;;;;;;;6179612;23;20458;-83
2022/07/30 02:19:48;;;;;;;4.82;3.28;;;;;;;;;;6180290;23;20072;-83
2022/07/30 02:22:16;;;;;;;7.78;3.80;;;;;;;;;;6180677;23;20047;-83
2022/07/30 02:24:45;;;;;;;3.67;3.15;;;;;;;;;;6180047;23;20025;-82
2022/07/30 02:27:16;;;;;;;5.60;3.75;;;;;;;;;;6179714;23;20025;-83
2022/07/30 02:29:44;;;;;;;5.05;3.58;;;;;;;;;;6180488;23;20029;-83
2022/07/30 02:32:13;;;;;;;5.80;3.70;;;;;;;;;;6179131;23;20025;-83
2022/07/30 02:34:42;;;;;;;6.05;3.58;;;;;;;;;;6179404;23;20025;-83
2022/07/30 02:37:11;;;;;;;7.47;4.00;;;;;;;;;;6180890;23;20071;-83
2022/07/30 02:39:39;;;;;;;4.50;3.35;;;;;;;;;;6179769;23;20021;-83
2022/07/30 02:42:07;;;;;;;6.90;3.55;;;;;;;;;;6178042;23;20080;-83
2022/07/30 02:44:35;;;;;;;8.10;3.78;;;;;;;;;;6179740;23;20052;-84
2022/07/30 02:47:02;;;;;;;7.25;3.92;;;;;;;;;;6180727;23;20032;-83
2022/07/30 02:49:34;;;;;;;6.15;3.45;;;;;;;;;;6178579;23;20036;-84
2022/07/30 02:52:02;;;;;;;5.07;2.88;;;;;;;;;;6178636;23;20084;-83
2022/07/30 02:54:30;;;;;;;7.65;3.28;;;;;;;;;;6180485;23;20021;-82
2022/07/30 02:57:00;;;;;;;7.68;3.50;;;;;;;;;;6179231;23;20017;-82
2022/07/30 02:59:28;;;;;;;6.20;3.45;;;;;;;;;;6180256;23;20060;-82
2022/07/30 03:01:57;;;;;;;5.97;3.90;;;;;;;;;;6180844;23;20025;-82
2022/07/30 03:04:25;;;;;;;5.63;3.60;;;;;;;;;;6180303;23;20029;-82
2022/07/30 03:06:54;;;;;;;9.07;3.60;;;;;;;;;;6180900;23;20021;-82
2022/07/30 03:09:22;;;;;;;5.57;3.83;;;;;;;;;;6180937;23;20079;-81
2022/07/30 03:11:50;;;;;;;4.80;3.58;;;;;;;;;;6181343;23;20083;-81
2022/07/30 03:14:18;;;;;;;7.35;4.10;;;;;;;;;;6179985;23;20025;-82
2022/07/30 03:16:48;;;;;;;4.65;3.63;;;;;;;;;;6180231;23;20021;-82
2022/07/30 03:19:16;;;;;;;8.77;4.05;;;;;;;;;;6180199;23;20025;-82
2022/07/30 03:21:44;;;;;;;8.88;4.22;;;;;;;;;;6179404;23;20481;-83
2022/07/30 03:24:12;;;;;;;7.10;3.72;;;;;;;;;;6178008;23;20024;-82
2022/07/30 03:26:40;;;;;;;8.50;3.75;;;;;;;;;;6180089;23;20036;-82
2022/07/30 03:29:08;;;;;;;4.93;3.58;;;;;;;;;;6180306;23;20032;-83
2022/07/30 03:31:36;;;;;;;5.88;3.97;;;;;;;;;;6179468;23;20109;-83
2022/07/30 03:34:05;;;;;;;6.28;3.70;;;;;;;;;;6179414;23;20025;-82
2022/07/30 03:36:32;;;;;;;6.65;3.78;;;;;;;;;;6179615;23;20463;-82
2022/07/30 03:39:00;;;;;;;8.60;4.28;;;;;;;;;;6180230;23;20059;-82
2022/07/30 03:41:28;;;;;;;8.40;4.20;;;;;;;;;;6180115;23;20329;-83
2022/07/30 03:43:55;;;;;;;6.93;4.03;;;;;;;;;;6179363;23;20087;-82
2022/07/30 03:46:23;;;;;;;5.50;3.83;;;;;;;;;;6180751;23;20025;-83
2022/07/30 03:48:51;;;;;;;6.50;3.80;;;;;;;;;;6180430;23;20482;-83
2022/07/30 03:51:19;;;;;;;5.72;3.85;;;;;;;;;;6180339;23;20470;-83
2022/07/30 03:53:46;;;;;;;8.60;4.15;;;;;;;;;;6179847;23;20084;-83
2022/07/30 03:56:14;;;;;;;6.32;3.53;;;;;;;;;;6180165;23;20491;-83
2022/07/30 03:58:41;;;;;;;6.07;2.88;;;;;;;;;;6180497;23;20059;-83
2022/07/30 04:01:10;;;;;;;6.18;3.67;;;;;;;;;;6179354;23;20025;-83
2022/07/30 04:03:38;;;;;;;6.70;3.67;;;;;;;;;;6179213;23;20021;-83
2022/07/30 04:06:05;;;;;;;5.47;3.90;;;;;;;;;;6180476;23;20328;-83
2022/07/30 04:08:33;;;;;;;4.15;3.30;;;;;;;;;;6179989;23;20024;-83
2022/07/30 04:11:00;;;;;;;7.80;3.40;;;;;;;;;;6180911;23;20152;-83
2022/07/30 04:13:27;;;;;;;8.48;4.50;;;;;;;;;;6180598;23;20029;-84
2022/07/30 04:15:55;;;;;;;;;;;;;;;;;;6181402;23;20021;-83
2022/07/30 04:18:45;;;;;;;3.17;2.60;;;;;;;;;;6177819;23;20385;-84
2022/07/30 04:21:14;;;;;;;9.00;3.03;;;;;;;;;;6179754;23;20025;-84
2022/07/30 04:23:44;;;;;;;6.68;3.10;;;;;;;;;;6177816;23;20018;-83
2022/07/30 04:26:31;;;;;;;8.43;2.80;;;;;;;;;;6179613;23;20486;-82
2022/07/30 04:29:00;;;;;;;3.33;2.35;;;;;;;;;;6179367;23;20028;-81
2022/07/30 04:31:28;;;;;;;5.57;2.30;;;;;;;;;;6178842;23;20029;-83
2022/07/30 04:33:55;;;;;;;4.70;2.65;;;;;;;;;;6179617;23;20025;-82
2022/07/30 04:36:29;;;;;;;6.93;2.65;;;;;;;;;;6180025;23;20021;-83
2022/07/30 04:38:57;;;;;;;5.50;2.53;;;;;;;;;;6179317;23;20358;-82
2022/07/30 04:41:24;;;;;;;4.03;2.70;;;;;;;;;;6177900;23;20057;-82
2022/07/30 04:43:52;;;;;;;6.72;2.78;;;;;;;;;;6180890;23;20048;-81
2022/07/30 04:46:19;;;;;;;5.53;2.50;;;;;;;;;;6181041;23;20087;-82
2022/07/30 04:48:51;;;;;;;4.18;2.60;;;;;;;;;;6181238;23;20462;-81
2022/07/30 04:51:29;;;;;;;5.70;3.20;;;;;;;;;;6180699;23;20079;-81
2022/07/30 04:53:56;;;;;;;;;;;;;;;;;;6180948;23;20060;-82
2022/07/30 04:56:24;;;;;;;6.47;3.13;;;;;;;;;;6180319;23;19927;-83
2022/07/30 04:58:51;;;;;;;4.95;2.75;;;;;;;;;;6180416;23;20029;-82
2022/07/30 05:01:22;;;;;;;9.13;2.92;;;;;;;;;;6180823;23;20025;-82
2022/07/30 05:04:04;;;;;;;7.55;3.03;;;;;;;;;;6179918;23;20025;-83
2022/07/30 05:06:32;;;;;;;6.45;3.45;;;;;;;;;;6179226;23;20075;-81
2022/07/30 05:09:00;;;;;;;6.45;3.22;;;;;;;;;;6179846;23;20454;-82
2022/07/30 05:11:27;;;;;;;4.60;2.80;;;;;;;;;;6181372;23;20029;-83
2022/07/30 05:13:54;;;;;;;13.63;3.70;;;;;;;;;;6181489;23;20025;-82
2022/07/30 05:16:21;;;;;;;7.53;3.47;;;;;;;;;;6180879;23;20071;-83
2022/07/30 05:18:49;;;;;;;5.18;3.58;;;;;;;;;;6177846;23;20029;-82
2022/07/30 05:21:16;;;;;;;9.18;3.25;;;;;;;;;;6181389;23;20079;-82
2022/07/30 05:23:44;;;;;;;4.32;3.03;;;;;;;;;;6181289;23;20491;-82
2022/07/30 05:26:20;;;;;;;6.80;3.17;;;;;;;;;;6179825;23;20025;-82
2022/07/30 05:28:53;;;;;;;5.93;3.28;;;;;;;;;;6180907;23;20051;-82
2022/07/30 05:31:23;;;;;;;6.22;3.13;;;;;;;;;;6180788;23;20561;-83
2022/07/30 05:33:51;;;;;;;7.13;3.50;;;;;;;;;;6181082;23;20079;-82
2022/07/30 05:36:19;;;;;;;9.30;3.90;;;;;;;;;;6179329;23;20044;-82
2022/07/30 05:38:47;;;;;;;8.30;3.70;;;;;;;;;;6180976;23;20025;-83
2022/07/30 05:41:15;;;;;;;7.68;3.42;;;;;;;;;;6180455;23;20029;-83
2022/07/30 05:43:58;;;;;;;6.68;3.38;;;;;;;;;;6180672;23;20123;-83
2022/07/30 05:46:28;;;;;;;9.10;3.60;;;;;;;;;;6177422;23;20462;-83
2022/07/30 05:48:55;;;;;;;9.55;3.45;;;;;;;;;;6180330;23;20052;-83
2022/07/30 05:51:22;;;;;;;7.53;3.40;;;;;;;;;;6180159;23;20025;-83
2022/07/30 05:53:50;;;;;;;7.93;3.20;;;;;;;;;;6178259;23;20021;-82
2022/07/30 05:56:17;;;;;;;7.05;3.45;;;;;;;;;;6179484;23;20083;-83
2022/07/30 05:58:45;;;;;;;10.68;3.10;;;;;;;;;;6180944;23;20032;-84
2022/07/30 06:01:12;;;;;;;8.02;3.22;;;;;;;;;;6180557;23;20025;-83
2022/07/30 06:03:39;;;;;;;11.40;3.38;;;;;;;;;;6180209;23;20021;-83
2022/07/30 06:06:06;;;;;;;6.72;2.90;;;;;;;;;;6179427;23;20064;-83
2022/07/30 06:08:34;;;;;;;6.55;3.13;;;;;;;;;;6180826;23;20079;-82
2022/07/30 06:11:01;;;;;;;;;;;;;;;;;;6181259;23;20079;-83
2022/07/30 06:13:28;;;;;;;6.13;2.67;;;;;;;;;;6178675;23;19920;-82
2022/07/30 06:15:56;;;;;;;;;;;;;;;;;;6179518;23;20079;-82
2022/07/30 06:18:23;;;;;;;6.88;2.88;;;;;;;;;;6180333;23;20420;-82
2022/07/30 06:20:52;;;;;;;6.97;2.80;;;;;;;;;;6180825;23;20057;-81
2022/07/30 06:23:21;;;;;;;6.47;2.90;;;;;;;;;;6181292;23;20466;-82
2022/07/30 06:25:48;;;;;;;9.77;3.17;;;;;;;;;;6179807;23;20021;-82
2022/07/30 06:28:16;;;;;;;7.25;3.38;;;;;;;;;;6180113;23;20021;-81
2022/07/30 06:31:03;;;;;;;6.43;2.88;;;;;;;;;;6181248;23;20027;-80
2022/07/30 06:33:30;;;;;;;8.30;3.30;;;;;;;;;;6180704;23;20358;-81
2022/07/30 06:35:58;;;;;;;3.90;2.95;;;;;;;;;;6181215;23;20017;-82
2022/07/30 06:38:25;;;;;;;4.10;2.80;;;;;;;;;;6180335;23;20394;-82
2022/07/30 06:40:56;;;;;;;5.25;2.90;;;;;;;;;;6178912;23;20048;-81
2022/07/30 06:43:29;;;;;;;8.30;2.83;;;;;;;;;;6180933;23;20080;-82
2022/07/30 06:45:56;;;;;;;9.52;2.80;;;;;;;;;;6180442;23;20028;-81
2022/07/30 06:48:23;;;;;;;8.13;2.70;;;;;;;;;;6182039;23;20044;-81
2022/07/30 06:50:51;;;;;;;8.27;2.88;;;;;;;;;;6180989;23;20029;-82
2022/07/30 06:53:18;;;;;;;4.03;2.70;;;;;;;;;;6181911;23;20021;-83
2022/07/30 06:55:45;;;;;;;5.80;2.92;;;;;;;;;;6181910;23;20100;-82
2022/07/30 06:58:13;;;;;;;6.38;2.90;;;;;;;;;;6181602;23;20029;-82
2022/07/30 07:00:51;;;;;;;6.95;2.25;;;;;;;;;;6181220;23;20063;-82
2022/07/30 07:03:18;;;;;;;8.60;2.70;;;;;;;;;;6177975;23;20021;-83
2022/07/30 07:05:46;;;;;;;9.80;2.38;;;;;;;;;;6177635;23;20028;-85
2022/07/30 07:08:13;;;;;;;4.35;2.38;;;;;;;;;;6178770;23;20021;-82
2022/07/30 07:10:40;;;;;;;;;;;;;;;;;;6181568;23;20029;-83
2022/07/30 07:13:07;;;;;;;4.30;1.90;;;;;;;;;;6180124;23;19975;-83
2022/07/30 07:15:35;;;;;;;6.95;2.25;;;;;;;;;;6181316;23;20470;-84
2022/07/30 07:18:04;;;;;;;7.28;2.00;;;;;;;;;;6181568;23;20051;-84
2022/07/30 07:20:31;;;;;;;7.60;2.05;;;;;;;;;;6180246;23;20375;-85
2022/07/30 07:22:58;;;;;;;8.18;2.28;;;;;;;;;;6180467;23;20414;-84
2022/07/30 07:25:26;;;;;;;7.82;2.45;;;;;;;;;;6180284;23;20067;-85
2022/07/30 07:27:54;;;;;;;4.10;2.10;;;;;;;;;;6181339;23;20025;-84
2022/07/30 07:30:40;;;;;;;3.95;2.08;;;;;;;;;;6181754;23;20085;-85
2022/07/30 07:33:07;;;;;;;4.47;1.83;;;;;;;;;;6181150;23;20044;-84
2022/07/30 07:35:34;;;;;;;3.92;2.00;;;;;;;;;;6181533;23;20025;-83
2022/07/30 07:38:15;;;;;;;4.32;2.10;;;;;;;;;;6179985;23;20555;-84
2022/07/30 07:40:42;;;;;;;4.07;2.20;;;;;;;;;;6181474;23;20025;-84
2022/07/30 07:43:09;;;;;;;3.22;1.40;;;;;;;;;;6180800;23;20340;-85
2022/07/30 07:45:37;;;;;;;2.53;1.45;;;;;;;;;;6180067;23;20036;-85
2022/07/30 07:48:04;;;;;;;2.13;1.48;;;;;;;;;;6181010;23;20021;-85
2022/07/30 07:50:32;;;;;;;3.15;1.67;;;;;;;;;;6180511;23;20033;-86
2022/07/30 07:52:59;;;;;;;3.45;1.73;;;;;;;;;;6179691;23;20346;-86
2022/07/30 07:55:26;;;;;;;3.60;1.40;;;;;;;;;;6178341;23;20033;-84
2022/07/30 07:57:57;;;;;;;4.15;1.70;;;;;;;;;;6180574;23;20024;-84
2022/07/30 08:00:24;;;;;;;6.55;1.70;;;;;;;;;;6180680;23;20056;-85
2022/07/30 08:02:52;;;;;;;4.82;1.65;;;;;;;;;;6179672;23;20099;-84
2022/07/30 08:05:20;;;;;;;4.40;1.70;;;;;;;;;;6181269;23;20025;-84
2022/07/30 08:07:47;;;;;;;3.83;1.48;;;;;;;;;;6180553;23;20056;-83
2022/07/30 08:10:14;;;;;;;4.78;1.60;;;;;;;;;;6179791;23;20029;-84
2022/07/30 08:12:42;;;;;;;3.95;1.88;;;;;;;;;;6179114;23;20021;-84
2022/07/30 08:15:09;;;;;;;3.80;1.50;;;;;;;;;;6180081;23;20083;-84
2022/07/30 08:17:44;;;;;;;7.07;1.88;;;;;;;;;;6180110;23;20028;-83
2022/07/30 08:20:12;;;;;;;2.72;1.30;;;;;;;;;;6182123;23;20025;-85
2022/07/30 08:22:40;;;;;;;3.85;1.55;;;;;;;;;;6181918;23;20395;-82
2022/07/30 08:25:07;;;;;;;2.03;1.27;;;;;;;;;;6183278;23;20017;-84
2022/07/30 08:27:35;;;;;;;5.13;1.45;;;;;;;;;;6181103;23;20025;-85
2022/07/30 08:30:07;;;;;;;2.72;1.80;;;;;;;;;;6182638;23;20036;-85
2022/07/30 08:32:35;;;;;;;2.60;1.48;;;;;;;;;;6181013;23;20029;-84
2022/07/30 08:35:03;;;;;;;5.53;1.40;;;;;;;;;;6181558;23;20025;-83
2022/07/30 08:37:33;;;;;;;4.43;1.42;;;;;;;;;;6180640;23;20028;-85
2022/07/30 08:40:00;;;;;;;8.48;1.60;;;;;;;;;;6181425;23;20059;-85
2022/07/30 08:42:27;;;;;;;2.20;1.30;;;;;;;;;;6181673;23;20032;-86
2022/07/30 08:44:54;;;;;;;;;;;;;;;;;;6182525;23;20017;-85
2022/07/30 08:47:25;;;;;;;4.20;1.45;;;;;;;;;;6182655;23;19920;-86
2022/07/30 08:49:52;;;;;;;1.63;1.00;;;;;;;;;;6181706;23;20083;-86
2022/07/30 08:52:21;;;;;;;4.90;1.35;;;;;;;;;;6181229;23;20021;-86
2022/07/30 08:54:48;;;;;;;;;;;;;;;;;;6182079;23;20088;-86
2022/07/30 08:57:15;;;;;;;3.45;1.45;;;;;;;;;;6180708;23;20341;-88
2022/07/30 08:59:43;;;;;;;1.90;1.10;;;;;;;;;;6180998;23;20299;-87
2022/07/30 09:02:29;;;;;;;1.27;1.00;;;;;;;;;;6181463;23;20032;-86
2022/07/30 09:04:57;;;;;;;2.55;1.52;;;;;;;;;;6183054;23;20068;-87
2022/07/30 09:07:24;;;;;;;;;;;;;;;;;;6183444;23;20025;-86
2022/07/30 09:09:51;;;;;;;2.17;1.38;;;;;;;;;;6182394;23;19920;-88
2022/07/30 09:12:36;;;;;;;1.58;1.17;;;;;;;;;;6182659;23;20091;-87
2022/07/30 09:15:11;;;;;;;1.48;1.17;;;;;;;;;;6182618;23;20350;-87
2022/07/30 09:17:55;;;;;;;1.25;1.10;;;;;;;;;;6181777;23;20028;-87
2022/07/30 09:20:24;;;;;;;3.75;1.20;;;;;;;;;;6182760;23;20536;-86
2022/07/30 09:22:56;;;;;;;3.65;1.13;;;;;;;;;;6182132;23;20021;-88
2022/07/30 09:25:43;;;;;;;1.80;1.25;;;;;;;;;;6182953;23;20025;-86
2022/07/30 09:28:14;;;;;;;6.85;1.55;;;;;;;;;;6181598;23;20619;-87
2022/07/30 09:30:45;;;;;;;1.98;1.10;;;;;;;;;;6182650;23;20028;-86
2022/07/30 09:33:13;;;;;;;2.33;1.30;;;;;;;;;;6180559;23;20397;-86
2022/07/30 09:35:41;;;;;;;2.53;1.23;;;;;;;;;;6181466;23;20088;-87
2022/07/30 09:38:09;;;;;;;4.50;1.50;;;;;;;;;;6182863;23;20079;-88
2022/07/30 09:40:36;;;;;;;3.53;1.27;;;;;;;;;;6182536;23;20028;-87
2022/07/30 09:43:10;;;;;;;2.03;1.27;;;;;;;;;;6180666;23;20017;-87
2022/07/30 09:45:49;;;;;;;2.60;1.30;;;;;;;;;;6180924;23;20024;-87
2022/07/30 09:48:26;;;;;;;3.67;1.50;;;;;;;;;;6183144;23;20031;-87
2022/07/30 09:50:53;;;;;;;3.35;1.40;;;;;;;;;;6182306;23;20105;-87
2022/07/30 09:53:23;;;;;;;3.88;1.33;;;;;;;;;;6181583;23;20100;-89
2022/07/30 09:55:50;;;;;;;;;;;;;;;;;;6181040;23;20103;-88
2022/07/30 09:58:18;;;;;;;2.38;1.25;;;;;;;;;;6181800;23;20301;-89
2022/07/30 10:01:00;;;;;;;6.43;1.58;;;;;;;;;;6182095;23;20033;-89
2022/07/30 10:03:28;;;;;;;2.40;1.60;;;;;;;;;;6181741;23;20411;-89
2022/07/30 10:06:07;;;;;;;3.28;1.60;;;;;;;;;;6179046;23;20033;-86
2022/07/30 10:08:45;;;;;;;6.60;1.42;;;;;;;;;;6178957;23;20028;-86
2022/07/30 10:11:15;;;;;;;3.03;1.42;;;;;;;;;;6180019;23;20029;-84
2022/07/30 10:13:50;;;;;;;4.63;1.50;;;;;;;;;;6180515;23;20027;-87
2022/07/30 10:16:19;;;;;;;7.60;1.83;;;;;;;;;;6178954;23;20039;-85
2022/07/30 10:18:50;;;;;;;3.58;1.63;;;;;;;;;;6177378;23;20458;-88
2022/07/30 10:21:19;;;;;;;3.53;1.45;;;;;;;;;;6178097;23;20025;-89
2022/07/30 10:23:52;;;;;;;4.57;1.60;;;;;;;;;;6180999;23;20028;-87
2022/07/30 10:26:20;;;;;;;3.35;1.40;;;;;;;;;;6181119;23;20025;-87
2022/07/30 10:28:49;;;;;;;2.60;1.30;;;;;;;;;;6181661;23;20025;-88
2022/07/30 10:31:16;;;;;;;5.40;1.50;;;;;;;;;;6180174;23;20470;-87
2022/07/30 10:34:04;;;;;;;2.80;1.30;;;;;;;;;;6180344;23;20533;-86
2022/07/30 10:36:34;;;;;;;6.10;1.55;;;;;;;;;;6179791;23;20079;-88
2022/07/30 10:39:02;;;;;;;3.25;1.30;;;;;;;;;;6179785;23;20092;-86
2022/07/30 10:41:39;;;;;;;2.67;1.50;;;;;;;;;;6179485;23;20025;-88
2022/07/30 10:44:26;;;;;;;3.75;1.52;;;;;;;;;;6179925;23;20104;-87
2022/07/30 10:47:07;;;;;;;4.05;1.52;;;;;;;;;;6180480;23;20056;-88
2022/07/30 10:49:36;;;;;;;2.60;1.23;;;;;;;;;;6179916;23;20075;-86
2022/07/30 10:52:08;;;;;;;2.60;1.30;;;;;;;;;;6180781;23;20251;-88
2022/07/30 10:54:35;;;;;;;2.30;1.30;;;;;;;;;;6179749;23;20116;-88
2022/07/30 10:57:15;;;;;;;4.35;1.40;;;;;;;;;;6180018;23;20461;-88
2022/07/30 11:00:01;;;;;;;4.43;1.65;;;;;;;;;;6180587;23;20025;-87
2022/07/30 11:02:33;;;;;;;6.63;1.40;;;;;;;;;;6179239;23;20428;-87
2022/07/30 11:05:28;;;;;;;3.33;1.52;;;;;;;;;;6178493;23;20358;-86
2022/07/30 11:08:30;;;;;;;2.95;1.60;;;;;;;;;;6178403;23;20025;-88
2022/07/30 11:11:03;;;;;;;3.65;1.80;;;;;;;;;;6180959;23;20025;-85
2022/07/30 11:13:53;;;;;;;2.85;1.63;;;;;;;;;;6179014;23;20021;-88
2022/07/30 11:16:22;;;;;;;4.65;1.95;;;;;;;;;;6180949;23;20079;-88
2022/07/30 11:19:02;;;;;;;2.78;1.50;;;;;;;;;;6179921;23;20358;-88
2022/07/30 11:22:10;;;;;;;4.78;1.95;;;;;;;;;;6178944;23;20421;-86
2022/07/30 11:24:43;;;;;;;6.13;1.70;;;;;;;;;;6180857;23;20025;-87
2022/07/30 11:27:30;;;;;;;3.42;1.80;;;;;;;;;;6180792;23;20418;-88
2022/07/30 11:30:02;;;;;;;3.40;1.60;;;;;;;;;;6181366;23;20028;-86
2022/07/30 11:32:31;;;;;;;6.25;1.90;;;;;;;;;;6179384;23;20025;-86
2022/07/30 11:35:11;;;;;;;2.67;1.67;;;;;;;;;;6180164;23;20020;-88
2022/07/30 11:37:57;;;;;;;5.03;1.88;;;;;;;;;;6179811;23;20025;-88
2022/07/30 11:40:32;;;;;;;4.05;1.70;;;;;;;;;;6179300;23;20028;-90
2022/07/30 11:43:17;;;;;;;3.55;1.83;;;;;;;;;;6179192;23;20486;-89
2022/07/30 11:45:50;;;;;;;5.65;2.03;;;;;;;;;;6179794;23;20017;-89
2022/07/30 11:48:18;;;;;;;4.85;1.77;;;;;;;;;;6180572;23;20029;-90
2022/07/30 11:50:47;;;;;;;4.22;1.80;;;;;;;;;;6180931;23;20021;-90
2022/07/30 11:53:20;;;;;;;8.13;1.90;;;;;;;;;;6178782;23;20060;-90
2022/07/30 11:55:51;;;;;;;2.55;1.42;;;;;;;;;;6183471;23;20462;-86
2022/07/30 11:58:38;;;;;;;4.47;1.70;;;;;;;;;;6183027;23;20028;-87
2022/07/30 12:01:11;;;;;;;7.13;1.95;;;;;;;;;;6182314;23;20028;-88
2022/07/30 12:03:46;;;;;;;5.57;1.92;;;;;;;;;;6182451;23;20025;-87
2022/07/30 12:06:16;;;;;;;2.88;1.60;;;;;;;;;;6182428;23;20075;-89
2022/07/30 12:08:45;;;;;;;3.70;1.65;;;;;;;;;;6181518;23;20071;-88
2022/07/30 12:11:12;;;;;;;9.05;1.98;;;;;;;;;;6182791;23;20052;-90
2022/07/30 12:13:42;;;;;;;3.50;1.90;;;;;;;;;;6182896;23;20071;-90
2022/07/30 12:16:14;;;;;;;11.02;2.00;;;;;;;;;;6183151;23;20501;-90
2022/07/30 12:18:43;;;;;;;6.25;2.13;;;;;;;;;;6182576;23;20363;-87
2022/07/30 12:21:11;;;;;;;5.40;1.80;;;;;;;;;;6183083;23;20057;-90
2022/07/30 12:23:42;;;;;;;6.68;2.20;;;;;;;;;;6182083;23;20092;-90
2022/07/30 12:26:20;;;;;;;6.38;2.10;;;;;;;;;;6181641;23;20021;-91
2022/07/30 12:28:47;;;;;;;;;;;;;;;;;;6181790;23;20021;-89
2022/07/30 12:31:15;;;;;;;3.67;1.80;;;;;;;;;;6179975;23;19971;-90
2022/07/30 12:33:42;;;;;;;5.90;2.00;;;;;;;;;;6182269;23;20063;-90
2022/07/30 12:36:09;;;;;;;3.22;1.90;;;;;;;;;;6183683;23;20087;-91
2022/07/30 12:38:44;;;;;;;3.95;1.90;;;;;;;;;;6181957;23;20028;-89
2022/07/30 12:41:11;;;;;;;8.85;2.30;;;;;;;;;;6182924;23;20467;-91
2022/07/30 12:43:52;;;;;;;11.90;2.20;;;;;;;;;;6182822;23;20494;-90
2022/07/30 12:46:21;;;;;;;5.32;1.90;;;;;;;;;;6180568;23;20072;-89
2022/07/30 12:48:53;;;;;;;4.15;1.88;;;;;;;;;;6181492;23;20029;-90
2022/07/30 12:51:21;;;;;;;7.75;2.00;;;;;;;;;;6183139;23;20079;-90
2022/07/30 12:53:48;;;;;;;5.15;2.22;;;;;;;;;;6180563;23;20025;-88
2022/07/30 12:56:15;;;;;;;;;;;;;;;;;;6181792;23;20029;-91
2022/07/30 12:58:43;;;;;;;4.85;2.30;;;;;;;;;;6182261;23;20041;-90
2022/07/30 13:01:12;;;;;;;3.63;1.88;;;;;;;;;;6179836;23;20048;-87
2022/07/30 13:03:40;;;;;;;6.45;2.13;;;;;;;;;;6182111;23;20055;-90
2022/07/30 13:06:22;;;;;;;2.83;1.70;;;;;;;;;;6181880;23;20032;-90
2022/07/30 13:08:49;;;;;;;5.15;2.22;;;;;;;;;;6182061;23;20083;-87
2022/07/30 13:11:17;;;;;;;6.00;2.03;;;;;;;;;;6182261;23;20052;-88
2022/07/30 13:13:45;;;;;;;8.15;1.90;;;;;;;;;;6182073;23;20470;-88
2022/07/30 13:16:13;;;;;;;8.52;2.00;;;;;;;;;;6182108;23;20087;-89
2022/07/30 13:18:40;;;;;;;4.57;2.10;;;;;;;;;;6181382;23;20025;-89
2022/07/30 13:21:08;;;;;;;;;;;;;;;;;;6183543;23;20025;-90
2022/07/30 13:23:39;;;;;;;5.63;2.00;;;;;;;;;;6181450;23;20337;-89
2022/07/30 13:26:07;;;;;;;5.05;2.00;;;;;;;;;;6181588;23;20383;-90
2022/07/30 13:28:35;;;;;;;4.93;2.25;;;;;;;;;;6181869;23;20650;-90
2022/07/30 13:31:02;;;;;;;;;;;;;;;;;;6182873;23;20024;-88
2022/07/30 13:33:29;;;;;;;5.13;1.80;;;;;;;;;;6180816;23;19955;-89
2022/07/30 13:35:56;;;;;;;;;;;;;;;;;;6182028;23;20025;-89
2022/07/30 13:38:24;;;;;;;6.72;1.90;;;;;;;;;;6182161;23;19970;-88
2022/07/30 13:40:51;;;;;;;;;;;;;;;;;;6182452;23;20025;-91
2022/07/30 13:43:18;;;;;;;4.43;1.80;;;;;;;;;;6181168;23;19916;-89
2022/07/30 13:45:46;;;;;;;9.32;2.33;;;;;;;;;;6180796;23;20029;-89
2022/07/30 13:48:13;;;;;;;3.78;1.80;;;;;;;;;;6179801;23;20029;-88
2022/07/30 13:50:41;;;;;;;5.35;2.00;;;;;;;;;;6181498;23;20025;-91
2022/07/30 13:53:08;;;;;;;9.85;2.10;;;;;;;;;;6180130;23;20029;-91
2022/07/30 13:55:36;;;;;;;2.53;1.67;;;;;;;;;;6181116;23;20025;-88
2022/07/30 13:58:05;;;;;;;5.15;2.13;;;;;;;;;;6181819;23;20060;-89
2022/07/30 14:00:35;;;;;;;5.60;1.83;;;;;;;;;;6181110;23;20076;-88
2022/07/30 14:03:03;;;;;;;3.80;1.70;;;;;;;;;;6181150;23;20462;-91
2022/07/30 14:05:32;;;;;;;6.50;1.85;;;;;;;;;;6181920;23;20683;-89
2022/07/30 14:07:59;;;;;;;6.75;1.98;;;;;;;;;;6181314;23;20025;-89
2022/07/30 14:10:27;;;;;;;11.75;2.30;;;;;;;;;;6181146;23;20044;-89
2022/07/30 14:12:55;;;;;;;2.78;1.80;;;;;;;;;;6181108;23;20021;-92
2022/07/30 14:15:23;;;;;;;4.03;2.13;;;;;;;;;;6182563;23;20080;-90
2022/07/30 14:17:50;;;;;;;6.32;1.77;;;;;;;;;;6181827;23;20028;-90
2022/07/30 14:20:22;;;;;;;4.75;1.67;;;;;;;;;;6180920;23;20439;-91
2022/07/30 14:22:55;;;;;;;7.10;2.00;;;;;;;;;;6180870;23;20297;-91
2022/07/30 14:25:22;;;;;;;3.80;2.10;;;;;;;;;;6181911;23;20525;-91
2022/07/30 14:27:49;;;;;;;5.88;1.98;;;;;;;;;;6180598;23;20064;-91
2022/07/30 14:30:18;;;;;;;4.70;1.70;;;;;;;;;;6181261;23;20028;-91
2022/07/30 14:32:45;;;;;;;5.90;2.00;;;;;;;;;;6179580;23;20545;-89
2022/07/30 14:35:12;;;;;;;7.18;2.00;;;;;;;;;;6180459;23;20024;-90
2022/07/30 14:37:40;;;;;;;3.65;1.73;;;;;;;;;;6180006;23;20067;-88
2022/07/30 14:40:10;;;;;;;6.35;1.73;;;;;;;;;;6180923;23;20340;-90
2022/07/30 14:42:41;;;;;;;5.75;1.90;;;;;;;;;;6179780;23;20079;-90
2022/07/30 14:45:09;;;;;;;5.20;1.70;;;;;;;;;;6179286;23;20032;-89
2022/07/30 14:47:38;;;;;;;7.43;1.88;;;;;;;;;;6178577;23;20075;-90
2022/07/30 14:50:05;;;;;;;4.47;2.20;;;;;;;;;;6180245;23;20044;-91
2022/07/30 14:52:33;;;;;;;7.00;2.00;;;;;;;;;;6181283;23;20025;-90
2022/07/30 14:55:01;;;;;;;3.55;1.80;;;;;;;;;;6178013;23;20412;-90
2022/07/30 14:57:30;;;;;;;10.23;2.13;;;;;;;;;;6180871;23;20047;-89
2022/07/30 14:59:57;;;;;;;5.40;2.10;;;;;;;;;;6181639;23;20083;-91
2022/07/30 15:02:25;;;;;;;5.68;1.50;;;;;;;;;;6180368;23;20029;-90
2022/07/30 15:04:52;;;;;;;5.25;1.65;;;;;;;;;;6181742;23;20056;-88
2022/07/30 15:07:19;;;;;;;6.35;2.00;;;;;;;;;;6181645;23;20033;-90
2022/07/30 15:09:46;;;;;;;5.47;1.67;;;;;;;;;;6180822;23;20025;-91